Trinchera, Colorado
Current Conditions -  °F | °C
As of 11:54 PM on Sunday 23 Nov 2014 (Local Time) from KTAD Reporting Station
Clear Clear  
Wind Chill:   Ceiling: Unl
Heat Index: 19°   Visibility: 8mi
Dew Point: 18°   Wind: 9mph
Humidity: 96%   Direction: 250°WSW
Pressure: 29.94"   Gusts: NA
Location:  37.04°N, 104.05°W
Report Text: KTAD 240654Z AUTO 25008KT 8SM CLR M07/M08 A2994 RMK AO2 SLP166 I1001 T10721078 400721072
Loading
Personal Weather Stations






























Interactive Weather Map New forecast layout! Learn more

10-Day Weather Forecast

Advertisements
Track Severe Weather on mobile